Time;durP1;ratioP1;P1;durP2;ratioP2;P2;SDS_P1;SDS_P2;PMS_P1;PMS_P2;Temp;Humidity;BMP_temperature;BMP_pressure;BME280_temperature;BME280_humidity;BME280_pressure;Samples;Min_cycle;Max_cycle;Signal;HPM_P1;HPM_P2
2022/11/20 00:01:10;;;;;;;20.55;12.90;;;;;;;0.34;61.51;100974.83;1725642;83;21506;-72
2022/11/20 00:03:37;;;;;;;19.45;12.45;;;;;;;0.33;61.68;100985.84;1706049;82;21924;-72
2022/11/20 00:06:07;;;;;;;21.87;13.93;;;;;;;0.31;61.86;100988.33;1704465;84;21039;-72
2022/11/20 00:08:33;;;;;;;20.92;13.98;;;;;;;0.26;62.15;100998.54;1697229;84;21058;-71
2022/11/20 00:11:14;;;;;;;20.60;14.00;;;;;;;0.23;62.45;101007.11;1681699;84;21106;-71
2022/11/20 00:13:41;;;;;;;21.95;14.25;;;;;;;0.20;62.72;101006.16;1683300;82;21659;-71
2022/11/20 00:16:10;;;;;;;21.60;14.18;;;;;;;0.20;62.91;101012.72;1701615;83;21252;-72
2022/11/20 00:18:39;;;;;;;21.25;13.85;;;;;;;0.20;63.06;100996.95;1691051;82;21780;-71
2022/11/20 00:21:14;;;;;;;21.55;13.90;;;;;;;0.25;63.12;100996.91;1696456;84;21018;-71
2022/11/20 00:23:42;;;;;;;21.62;14.85;;;;;;;0.25;63.28;100991.66;1702089;84;21138;-71
2022/11/20 00:26:13;;;;;;;20.52;13.38;;;;;;;0.24;63.43;100994.79;1682498;84;21109;-71
2022/11/20 00:28:42;;;;;;;23.20;14.58;;;;;;;0.24;63.67;101006.61;1685223;82;21129;-71
2022/11/20 00:31:13;;;;;;;22.65;13.80;;;;;;;0.22;63.89;101009.91;1698867;83;21364;-70
2022/11/20 00:33:40;;;;;;;22.82;14.30;;;;;;;0.19;64.08;101015.51;1678735;84;21118;-71
2022/11/20 00:36:10;;;;;;;20.48;13.60;;;;;;;0.20;64.23;101022.42;1695081;84;21035;-71
2022/11/20 00:38:36;;;;;;;22.13;14.13;;;;;;;0.19;64.32;101022.08;1705773;82;21077;-71
2022/11/20 00:41:07;;;;;;;21.65;14.23;;;;;;;0.18;64.38;101026.52;1706116;83;21557;-72
2022/11/20 00:43:33;;;;;;;20.70;13.35;;;;;;;0.20;64.35;101032.42;1691381;84;21147;-71
2022/11/20 00:46:02;;;;;;;21.45;14.18;;;;;;;0.16;64.42;101033.75;1691383;83;21035;-71
2022/11/20 00:48:30;;;;;;;19.12;12.88;;;;;;;0.22;64.27;101035.67;1706761;84;21114;-71
2022/11/20 00:50:57;;;;;;;21.93;14.35;;;;;;;0.15;64.44;101025.56;1702454;84;20972;-71
2022/11/20 00:53:24;;;;;;;25.02;15.32;;;;;;;0.14;64.51;101025.25;1701028;84;21164;-71
2022/11/20 00:56:00;;;;;;;19.30;12.73;;;;;;;0.13;64.58;101027.56;1685741;83;21060;-71
2022/11/20 00:58:33;;;;;;;22.62;14.55;;;;;;;0.12;64.70;101023.78;1703544;82;21079;-71
2022/11/20 01:01:03;;;;;;;22.48;15.18;;;;;;;0.09;64.82;101027.58;1690238;84;21102;-70
2022/11/20 01:03:35;;;;;;;22.82;15.08;;;;;;;0.06;65.13;101032.36;1694032;82;21146;-69
2022/11/20 01:06:04;;;;;;;24.87;16.37;;;;;;;0.07;65.13;101023.01;1703490;83;26584;-69
2022/11/20 01:08:34;;;;;;;22.70;14.53;;;;;;;0.07;65.17;101010.37;1695137;84;21077;-70
2022/11/20 01:11:05;;;;;;;23.27;14.73;;;;;;;0.10;65.10;101007.38;1678663;84;21525;-70
2022/11/20 01:13:37;;;;;;;26.37;16.23;;;;;;;0.08;65.12;101015.44;1706030;82;21059;-70
2022/11/20 01:16:14;;;;;;;23.98;16.25;;;;;;;0.11;65.16;101016.91;1704177;82;21016;-72
2022/11/20 01:18:45;;;;;;;24.60;15.72;;;;;;;0.14;65.14;101013.92;1703446;84;21110;-72
2022/11/20 01:21:19;;;;;;;26.23;17.42;;;;;;;0.21;65.11;101012.22;1686513;84;21584;-72
2022/11/20 01:23:49;;;;;;;24.32;16.25;;;;;;;0.25;65.06;101016.12;1685299;82;21576;-70
2022/11/20 01:26:20;;;;;;;26.50;16.30;;;;;;;0.32;65.05;101016.22;1678750;85;21066;-70
2022/11/20 01:28:48;;;;;;;26.05;17.15;;;;;;;0.36;65.03;101006.51;1697072;84;21000;-71
2022/11/20 01:31:30;;;;;;;24.90;16.60;;;;;;;0.42;65.03;101004.95;1706389;82;21509;-71
2022/11/20 01:34:00;;;;;;;25.97;16.37;;;;;;;0.48;64.99;101001.61;1706095;83;21403;-70
2022/11/20 01:36:29;;;;;;;24.80;17.23;;;;;;;0.52;64.94;101003.38;1701871;84;21577;-71
2022/11/20 01:38:58;;;;;;;26.02;17.45;;;;;;;0.54;64.92;101002.22;1677859;84;21573;-70
2022/11/20 01:44:15;;;;;;;26.00;16.87;;;;;;;0.65;64.99;101007.52;1683955;84;22128;-71
2022/11/20 01:47:01;;;;;;;26.12;17.00;;;;;;;0.73;64.98;101019.78;1680764;84;21188;-71
2022/11/20 01:49:39;;;;;;;26.57;16.75;;;;;;;0.76;64.95;101011.50;1703710;84;21033;-71
2022/11/20 01:52:14;;;;;;;25.27;16.75;;;;;;;0.73;64.94;101019.28;1705820;82;21070;-70
2022/11/20 01:54:55;;;;;;;28.00;17.20;;;;;;;0.76;65.00;101021.55;1681573;84;21718;-71
2022/11/20 01:57:23;;;;;;;24.27;16.27;;;;;;;0.78;65.03;101020.04;1666832;84;21352;-70
2022/11/20 01:59:56;;;;;;;27.20;18.23;;;;;;;0.82;65.01;101027.88;1679258;82;21081;-72
2022/11/20 02:02:22;;;;;;;27.13;17.32;;;;;;;0.85;65.04;101034.09;1680806;84;21146;-71
2022/11/20 02:04:49;;;;;;;30.95;18.32;;;;;;;0.85;65.02;101035.41;1680375;84;20988;-70
2022/11/20 02:07:16;;;;;;;30.72;18.42;;;;;;;0.86;64.96;101047.58;1703515;83;21561;-71
2022/11/20 02:09:43;;;;;;;28.38;18.12;;;;;;;0.84;64.91;101040.35;1709882;82;22095;-71
2022/11/20 02:13:42;;;;;;;27.77;18.00;;;;;;;0.88;64.94;101049.51;1705986;83;21573;-71
2022/11/20 02:14:38;;;;;;;31.23;19.07;;;;;;;0.90;65.05;101042.27;1700726;84;21124;-71
2022/11/20 02:17:05;;;;;;;29.35;19.05;;;;;;;0.93;65.03;101043.22;1682196;82;21014;-70
2022/11/20 02:19:31;;;;;;;29.50;18.80;;;;;;;0.96;65.04;101042.05;1683901;83;21581;-71
2022/11/20 02:22:21;;;;;;;27.40;18.32;;;;;;;0.98;65.06;101046.10;1699640;84;21598;-71
2022/11/20 02:24:48;;;;;;;26.00;17.17;;;;;;;1.02;65.07;101044.77;1695327;84;21572;-71
2022/11/20 02:27:16;;;;;;;27.25;17.87;;;;;;;1.05;64.99;101050.95;1701749;84;21051;-71
2022/11/20 02:29:57;;;;;;;23.57;15.32;;;;;;;1.01;64.84;101052.32;1699431;83;21045;-72
2022/11/20 02:32:31;;;;;;;28.95;18.40;;;;;;;0.94;64.71;101065.38;1704281;83;21080;-72
2022/11/20 02:34:57;;;;;;;25.30;17.73;;;;;;;0.80;64.64;101062.76;1700223;84;21191;-71
2022/11/20 02:37:30;;;;;;;27.82;18.42;;;;;;;0.75;64.70;101058.02;1706307;82;21081;-71
2022/11/20 02:39:58;;;;;;;26.30;19.00;;;;;;;0.74;64.75;101035.86;1707504;82;21147;-71
2022/11/20 02:42:24;;;;;;;25.75;17.77;;;;;;;0.78;64.78;101038.44;1680336;84;21093;-72
2022/11/20 02:44:51;;;;;;;26.62;17.70;;;;;;;0.87;64.71;101043.94;1679231;84;21038;-70
2022/11/20 02:47:19;;;;;;;27.15;18.73;;;;;;;0.87;64.68;101053.14;1687783;84;22488;-71
2022/11/20 02:49:46;;;;;;;26.23;18.60;;;;;;;0.69;64.83;101049.06;1703837;82;21499;-72
2022/11/20 02:52:12;;;;;;;29.30;18.87;;;;;;;0.85;64.77;101049.36;1683334;84;21695;-71
2022/11/20 02:54:39;;;;;;;28.15;18.32;;;;;;;0.93;64.71;101049.30;1677020;84;21102;-71
2022/11/20 02:57:05;;;;;;;30.23;18.92;;;;;;;0.99;64.62;101050.86;1679376;84;21061;-72
2022/11/20 02:59:33;;;;;;;26.27;18.80;;;;;;;1.02;64.61;101048.71;1688412;82;22183;-71
2022/11/20 03:02:00;;;;;;;25.05;17.27;;;;;;;1.06;64.56;101049.97;1690041;82;21621;-71
2022/11/20 03:04:27;;;;;;;24.75;17.30;;;;;;;1.10;64.52;101061.76;1698176;82;21052;-71
2022/11/20 03:06:53;;;;;;;29.18;17.60;;;;;;;1.10;64.50;101067.52;1669411;83;20966;-70
2022/11/20 03:09:21;;;;;;;23.62;16.70;;;;;;;1.12;64.49;101068.17;1693057;83;21039;-72
2022/11/20 03:11:48;;;;;;;23.55;16.87;;;;;;;1.15;64.47;101068.62;1691976;84;21170;-72
2022/11/20 03:14:15;;;;;;;24.77;17.15;;;;;;;1.13;64.43;101069.29;1674874;84;20991;-71
2022/11/20 03:16:41;;;;;;;25.85;17.02;;;;;;;1.14;64.45;101068.28;1702539;82;21161;-71
2022/11/20 03:19:09;;;;;;;24.05;16.60;;;;;;;1.16;64.46;101064.17;1708632;83;21595;-72
2022/11/20 03:21:36;;;;;;;24.57;16.75;;;;;;;1.22;64.37;101059.97;1708753;84;21565;-71
2022/11/20 03:24:03;;;;;;;24.25;16.67;;;;;;;1.20;64.33;101068.06;1708364;84;21534;-72
2022/11/20 03:26:31;;;;;;;23.77;16.10;;;;;;;1.20;64.31;101073.32;1709322;82;21015;-71
2022/11/20 03:29:00;;;;;;;22.13;14.70;;;;;;;1.21;64.23;101078.08;1713284;82;20988;-71
2022/11/20 03:31:33;;;;;;;23.18;15.83;;;;;;;1.17;64.22;101073.18;1723084;83;21024;-71
2022/11/20 03:34:00;;;;;;;21.93;15.58;;;;;;;1.17;64.18;101075.81;1723480;83;20968;-71
2022/11/20 03:36:27;;;;;;;22.10;15.20;;;;;;;1.23;64.16;101078.73;1709437;81;21681;-72
2022/11/20 03:38:55;;;;;;;24.18;16.20;;;;;;;1.24;64.02;101084.30;1694578;84;21074;-71
2022/11/20 03:41:24;;;;;;;24.05;16.00;;;;;;;1.07;64.09;101097.63;1706497;81;21074;-71
2022/11/20 03:43:59;;;;;;;23.67;15.63;;;;;;;1.03;64.23;101095.05;1695985;83;21626;-71
2022/11/20 03:46:27;;;;;;;22.75;14.90;;;;;;;1.04;64.13;101094.55;1700255;83;21062;-71
2022/11/20 03:48:56;;;;;;;23.35;16.15;;;;;;;1.01;64.14;101083.07;1705391;81;20921;-71
2022/11/20 03:51:32;;;;;;;24.05;16.52;;;;;;;0.47;65.49;101089.34;1726382;81;21008;-71
2022/11/20 03:54:06;;;;;;;26.48;16.45;;;;;;;0.99;64.57;101079.32;1724483;83;21019;-71
2022/11/20 03:56:36;;;;;;;25.10;16.57;;;;;;;1.09;64.43;101077.73;1725120;83;21103;-72
2022/11/20 03:59:03;;;;;;;25.23;16.75;;;;;;;1.09;64.41;101079.87;1721702;82;21067;-70
2022/11/20 04:01:33;;;;;;;24.98;18.00;;;;;;;1.14;64.47;101078.80;1718875;81;21539;-70
2022/11/20 04:04:00;;;;;;;24.05;16.62;;;;;;;1.20;64.45;101076.45;1696821;83;21060;-70
2022/11/20 04:06:32;;;;;;;23.52;16.25;;;;;;;1.26;64.35;101069.16;1694830;83;20972;-70
2022/11/20 04:08:59;;;;;;;21.90;15.43;;;;;;;1.20;64.40;101068.06;1704920;82;21589;-71
2022/11/20 04:11:29;;;;;;;22.00;13.78;;;;;;;1.12;64.42;101066.34;1708713;84;21038;-71
2022/11/20 04:14:01;;;;;;;22.62;14.87;;;;;;;1.05;64.50;101061.97;1695451;83;21088;-72
2022/11/20 04:16:36;;;;;;;20.20;14.55;;;;;;;0.96;64.63;101063.09;1695068;84;21569;-71
2022/11/20 04:19:06;;;;;;;20.80;14.63;;;;;;;0.88;64.79;101060.84;1715505;81;21067;-71
2022/11/20 04:21:34;;;;;;;20.90;13.78;;;;;;;0.85;64.90;101053.81;1706444;81;21466;-72
2022/11/20 04:24:00;;;;;;;19.60;14.47;;;;;;;0.80;65.05;101054.36;1695291;84;21099;-72
2022/11/20 04:26:31;;;;;;;19.67;13.40;;;;;;;0.74;65.19;101046.38;1695511;81;21150;-71
2022/11/20 04:28:58;;;;;;;20.08;14.35;;;;;;;0.72;65.34;101047.05;1694772;84;20999;-71
2022/11/20 04:31:29;;;;;;;21.50;14.78;;;;;;;0.73;65.43;101052.64;1716386;83;21055;-71
2022/11/20 04:33:55;;;;;;;22.32;15.50;;;;;;;0.70;65.56;101061.70;1724068;83;21015;-71
2022/11/20 04:36:25;;;;;;;23.73;15.18;;;;;;;0.73;65.66;101051.33;1724065;83;21589;-71
2022/11/20 04:39:01;;;;;;;22.32;16.05;;;;;;;0.73;65.77;101045.57;1711126;81;21067;-71
2022/11/20 04:41:34;;;;;;;24.40;16.57;;;;;;;0.76;65.85;101047.84;1706312;81;21442;-71
2022/11/20 04:44:03;;;;;;;25.15;16.60;;;;;;;0.78;65.94;101037.94;1709015;84;21062;-71
2022/11/20 04:46:32;;;;;;;23.60;15.05;;;;;;;0.81;65.92;101030.20;1708650;82;21051;-73
2022/11/20 04:48:59;;;;;;;22.07;15.65;;;;;;;0.80;65.90;101014.11;1701539;83;21019;-71
2022/11/20 04:51:27;;;;;;;22.98;16.15;;;;;;;0.75;65.83;101019.08;1695014;84;21153;-71
2022/11/20 04:53:54;;;;;;;23.27;15.63;;;;;;;0.68;65.91;101007.97;1695062;84;21529;-71
2022/11/20 04:56:20;;;;;;;21.55;14.73;;;;;;;0.67;65.98;101006.85;1695851;82;21674;-70
2022/11/20 04:58:48;;;;;;;26.85;17.98;;;;;;;0.62;66.09;100996.86;1696540;82;21070;-72
2022/11/20 05:01:22;;;;;;;25.30;17.17;;;;;;;0.59;66.13;100982.80;1705196;83;21042;-72
2022/11/20 05:03:50;;;;;;;25.02;15.93;;;;;;;0.55;66.20;100984.12;1692139;84;21106;-71
2022/11/20 05:06:20;;;;;;;26.73;17.67;;;;;;;0.53;66.33;100978.72;1689983;83;21079;-70
2022/11/20 05:08:47;;;;;;;29.02;19.02;;;;;;;0.52;66.37;100976.59;1694481;84;21054;-71
2022/11/20 05:11:18;;;;;;;28.90;19.20;;;;;;;0.53;66.50;100974.78;1694765;84;21027;-70
2022/11/20 05:13:45;;;;;;;27.35;18.65;;;;;;;0.56;66.57;100986.25;1697582;82;20967;-71
2022/11/20 05:16:17;;;;;;;31.52;20.25;;;;;;;0.58;66.59;100982.95;1703207;83;21244;-71
2022/11/20 05:18:44;;;;;;;30.05;19.52;;;;;;;0.63;66.56;100979.30;1723272;83;21051;-71
2022/11/20 05:21:12;;;;;;;43.20;24.57;;;;;;;0.61;66.52;100975.52;1715943;82;21027;-71
2022/11/20 05:23:40;;;;;;;59.53;29.77;;;;;;;0.59;66.53;100979.32;1714382;83;21004;-71
2022/11/20 05:26:10;;;;;;;60.73;31.40;;;;;;;0.57;66.57;100995.79;1695852;83;20980;-70
2022/11/20 05:28:37;;;;;;;67.58;33.73;;;;;;;0.60;66.65;100999.37;1722585;83;21458;-71
2022/11/20 05:31:08;;;;;;;66.20;32.83;;;;;;;0.66;66.67;101001.28;1712022;81;20988;-70
2022/11/20 05:33:35;;;;;;;61.05;30.05;;;;;;;0.67;66.64;100995.83;1699729;81;21514;-71
2022/11/20 05:36:04;;;;;;;55.17;28.57;;;;;;;0.68;66.63;100996.14;1695268;84;21498;-71
2022/11/20 05:38:31;;;;;;;47.45;26.82;;;;;;;0.68;66.67;100968.53;1695069;83;21024;-71
2022/11/20 05:41:06;;;;;;;37.00;22.32;;;;;;;0.72;66.62;100961.09;1707533;81;21828;-71
2022/11/20 05:43:35;;;;;;;32.73;21.15;;;;;;;0.69;66.70;100966.25;1703443;83;21003;-70
2022/11/20 05:46:02;;;;;;;29.02;17.73;;;;;;;0.70;66.78;100973.63;1716678;82;20991;-72
2022/11/20 05:48:29;;;;;;;28.05;17.95;;;;;;;0.74;66.84;100971.45;1694265;82;21036;-71
2022/11/20 05:50:58;;;;;;;22.77;15.78;;;;;;;0.75;66.89;100973.88;1699009;82;21560;-71
2022/11/20 05:53:25;;;;;;;22.80;16.00;;;;;;;0.80;66.90;100973.35;1715347;81;21728;-71
2022/11/20 05:56:05;;;;;;;25.23;16.77;;;;;;;0.80;66.95;100967.59;1721206;81;21050;-71
2022/11/20 05:58:32;;;;;;;25.25;16.17;;;;;;;0.80;66.99;100970.22;1724074;83;20988;-70
2022/11/20 06:01:19;;;;;;;24.30;16.97;;;;;;;0.81;67.01;100974.47;1732915;81;21028;-70
2022/11/20 06:03:49;;;;;;;21.68;15.40;;;;;;;0.82;67.04;100978.72;1705024;82;21102;-71
2022/11/20 06:06:17;;;;;;;22.95;15.98;;;;;;;0.85;67.11;100978.86;1708789;84;21112;-71
2022/11/20 06:08:44;;;;;;;23.45;15.78;;;;;;;0.87;67.12;100979.51;1704200;81;21002;-71
2022/11/20 06:11:12;;;;;;;20.75;14.78;;;;;;;0.90;67.17;100984.41;1725310;81;21022;-70
2022/11/20 06:13:39;;;;;;;23.87;15.75;;;;;;;0.95;67.19;100982.02;1723975;83;21022;-71
2022/11/20 06:16:07;;;;;;;22.13;15.10;;;;;;;0.99;67.12;100976.73;1719449;81;21051;-70
2022/11/20 06:18:34;;;;;;;21.52;14.38;;;;;;;1.01;67.16;100981.30;1721471;81;21143;-71
2022/11/20 06:21:13;;;;;;;22.95;16.12;;;;;;;1.03;67.23;100985.89;1728671;81;21047;-70
2022/11/20 06:23:40;;;;;;;20.37;14.47;;;;;;;1.10;67.20;100985.47;1716576;83;21065;-70
2022/11/20 06:26:11;;;;;;;21.68;14.90;;;;;;;1.19;67.14;100985.38;1689003;82;21012;-70
2022/11/20 06:28:38;;;;;;;22.05;14.47;;;;;;;1.26;67.05;100985.75;1706380;82;21019;-71
2022/11/20 06:31:06;;;;;;;20.37;14.35;;;;;;;1.36;66.92;100990.22;1694438;84;21141;-71
2022/11/20 06:33:34;;;;;;;22.85;16.52;;;;;;;1.39;66.87;100983.27;1691221;82;21062;-71
2022/11/20 06:36:01;;;;;;;23.00;15.98;;;;;;;1.41;66.83;100979.13;1692125;82;21102;-71
2022/11/20 06:38:28;;;;;;;22.98;16.27;;;;;;;1.43;66.73;100976.32;1708201;82;21148;-71
2022/11/20 06:40:55;;;;;;;24.25;16.52;;;;;;;1.45;66.65;100965.92;1708781;82;21541;-70
2022/11/20 06:43:22;;;;;;;22.65;15.95;;;;;;;1.51;66.49;100982.27;1710618;84;21516;-70
2022/11/20 06:45:58;;;;;;;21.90;15.48;;;;;;;1.56;66.39;100976.45;1714373;82;21078;-71
2022/11/20 06:48:27;;;;;;;24.72;16.62;;;;;;;1.60;66.22;100974.56;1695336;82;21090;-71
2022/11/20 06:50:54;;;;;;;24.27;15.98;;;;;;;1.67;66.10;100975.14;1708367;83;21205;-71
2022/11/20 06:53:22;;;;;;;28.57;17.75;;;;;;;1.73;65.91;100972.56;1705365;82;21099;-71
2022/11/20 06:55:51;;;;;;;28.87;18.92;;;;;;;1.74;65.52;100968.92;1691210;82;22179;-72
2022/11/20 06:58:18;;;;;;;31.05;18.55;;;;;;;1.72;65.33;100968.31;1699516;84;21102;-72
2022/11/20 07:00:45;;;;;;;28.77;17.42;;;;;;;1.76;65.36;100965.61;1699741;82;21094;-71
2022/11/20 07:03:12;;;;;;;33.88;20.20;;;;;;;1.80;65.16;100968.67;1708217;84;21042;-71
2022/11/20 07:05:38;;;;;;;27.40;17.82;;;;;;;1.83;64.92;100962.52;1689607;82;21019;-71
2022/11/20 07:08:05;;;;;;;24.82;16.37;;;;;;;1.84;64.73;100955.44;1681107;85;21044;-71
2022/11/20 07:10:32;;;;;;;21.87;14.87;;;;;;;1.88;64.68;100961.98;1683807;82;20960;-71
2022/11/20 07:13:00;;;;;;;21.77;15.90;;;;;;;1.93;64.53;100959.57;1682856;82;21050;-71
2022/11/20 07:15:27;;;;;;;20.45;14.33;;;;;;;1.93;64.21;100960.89;1703132;82;21138;-71
2022/11/20 07:17:54;;;;;;;20.50;14.07;;;;;;;1.94;63.96;100951.16;1709185;82;21683;-71
2022/11/20 07:20:20;;;;;;;20.05;14.63;;;;;;;1.90;63.89;100938.87;1687332;82;21230;-72
2022/11/20 07:22:47;;;;;;;20.90;14.50;;;;;;;1.94;63.83;100936.20;1680690;82;21069;-72
2022/11/20 07:25:14;;;;;;;20.62;14.43;;;;;;;1.96;63.69;100933.36;1675915;84;21549;-72
2022/11/20 07:27:41;;;;;;;19.73;14.07;;;;;;;1.98;63.65;100936.12;1691394;82;21076;-71
2022/11/20 07:30:09;;;;;;;20.15;14.45;;;;;;;2.05;63.71;100942.25;1730702;82;21050;-72
2022/11/20 07:32:35;;;;;;;19.62;13.72;;;;;;;2.08;63.50;100941.87;1714526;83;21164;-72
2022/11/20 07:35:02;;;;;;;19.15;13.05;;;;;;;2.10;63.42;100947.74;1728980;82;21079;-72
2022/11/20 07:37:28;;;;;;;18.00;13.20;;;;;;;2.14;63.29;100944.73;1702744;83;21588;-72
2022/11/20 07:39:55;;;;;;;19.30;14.00;;;;;;;2.16;63.13;100942.22;1724128;83;21063;-72
2022/11/20 07:42:23;;;;;;;18.87;13.20;;;;;;;2.18;63.05;100930.19;1707965;83;21110;-72
2022/11/20 07:44:51;;;;;;;17.07;12.70;;;;;;;2.22;62.89;100934.86;1689648;83;21183;-70
2022/11/20 07:47:19;;;;;;;17.35;12.55;;;;;;;2.22;62.46;100929.59;1723922;83;21015;-70
2022/11/20 07:49:46;;;;;;;17.37;12.60;;;;;;;2.20;62.54;100929.47;1724281;82;21012;-70
2022/11/20 07:52:12;;;;;;;16.67;12.37;;;;;;;2.26;62.62;100922.11;1724007;83;21024;-71
2022/11/20 07:54:39;;;;;;;17.32;12.05;;;;;;;2.27;62.39;100935.11;1721856;83;21629;-72
2022/11/20 07:57:07;;;;;;;15.38;11.93;;;;;;;2.29;62.42;100936.23;1710910;83;20965;-72
2022/11/20 07:59:36;;;;;;;17.27;12.65;;;;;;;2.33;62.45;100936.14;1706522;83;20964;-70
2022/11/20 08:02:04;;;;;;;16.52;12.03;;;;;;;2.43;62.40;100918.66;1720774;83;21103;-73
2022/11/20 08:04:32;;;;;;;15.93;12.03;;;;;;;2.46;62.16;100925.67;1722194;83;21094;-71
2022/11/20 08:07:00;;;;;;;14.40;11.53;;;;;;;2.47;62.03;100926.01;1698781;83;21169;-70
2022/11/20 08:09:27;;;;;;;15.40;11.85;;;;;;;2.52;61.86;100928.05;1707851;83;21138;-70
2022/11/20 08:14:41;;;;;;;16.93;12.15;;;;;;;2.59;61.74;100937.61;1697399;83;21039;-70
2022/11/20 08:17:08;;;;;;;15.18;11.63;;;;;;;2.62;61.72;100934.29;1698586;81;21152;-71
2022/11/20 08:19:35;;;;;;;15.83;11.88;;;;;;;2.64;61.82;100933.60;1722342;81;21045;-71
2022/11/20 08:22:02;;;;;;;17.00;12.10;;;;;;;2.67;61.77;100927.43;1719026;81;21261;-72
2022/11/20 08:24:29;;;;;;;16.00;12.15;;;;;;;2.78;61.60;100926.86;1714205;81;20948;-71
2022/11/20 08:27:03;;;;;;;16.30;11.90;;;;;;;2.76;61.64;100922.78;1708943;83;21075;-70
2022/11/20 08:29:27;;;;;;;16.23;12.55;;;;;;;2.77;61.66;100914.69;1699660;83;21546;-70
2022/11/20 08:31:55;;;;;;;16.32;12.37;;;;;;;2.76;61.58;100910.91;1696313;83;21102;-70
2022/11/20 08:34:22;;;;;;;16.45;12.53;;;;;;;2.70;61.54;100901.14;1699047;83;21153;-70
2022/11/20 08:36:48;;;;;;;17.20;12.03;;;;;;;2.69;61.63;100891.61;1723998;83;21048;-70
2022/11/20 08:39:15;;;;;;;16.23;11.88;;;;;;;2.67;61.81;100879.95;1724093;83;21585;-70
2022/11/20 08:41:41;;;;;;;16.70;12.98;;;;;;;2.66;61.97;100890.17;1698891;83;21137;-70
2022/11/20 08:44:08;;;;;;;17.57;13.15;;;;;;;2.61;62.14;100878.10;1694458;84;21066;-72
2022/11/20 08:46:39;;;;;;;18.20;13.38;;;;;;;2.60;62.26;100876.48;1696975;83;21143;-69
2022/11/20 08:49:08;;;;;;;17.00;12.63;;;;;;;2.62;62.46;100881.55;1694173;84;21099;-69
2022/11/20 08:51:35;;;;;;;16.75;12.45;;;;;;;2.68;62.49;100888.67;1696350;84;21063;-70
2022/11/20 08:54:03;;;;;;;17.02;12.75;;;;;;;2.69;62.58;100891.10;1694748;84;21027;-70
2022/11/20 08:56:30;;;;;;;16.82;12.60;;;;;;;2.68;62.65;100887.36;1694883;84;21011;-69
2022/11/20 08:58:59;;;;;;;17.70;13.58;;;;;;;2.71;62.74;100876.41;1694816;84;21308;-70
2022/11/20 09:01:25;;;;;;;16.65;12.98;;;;;;;2.71;62.82;100874.59;1695242;84;21078;-69
2022/11/20 09:03:52;;;;;;;17.10;12.10;;;;;;;2.77;62.84;100877.77;1694858;84;21024;-70
2022/11/20 09:06:19;;;;;;;15.72;12.18;;;;;;;2.79;62.75;100878.87;1694814;84;21027;-71
2022/11/20 09:08:47;;;;;;;16.27;12.45;;;;;;;2.74;62.60;100874.20;1694824;84;21002;-69
2022/11/20 09:11:13;;;;;;;15.93;11.15;;;;;;;2.70;62.54;100866.86;1695117;84;21323;-69
2022/11/20 09:13:40;;;;;;;16.77;12.93;;;;;;;2.71;62.61;100872.46;1694703;84;21047;-70
2022/11/20 09:16:08;;;;;;;15.32;12.40;;;;;;;2.76;62.59;100868.70;1695270;84;20967;-70
2022/11/20 09:18:38;;;;;;;17.57;12.70;;;;;;;2.76;62.43;100879.26;1695011;84;21070;-70
2022/11/20 09:21:10;;;;;;;16.97;12.30;;;;;;;2.75;62.31;100876.33;1695033;84;21071;-70
2022/11/20 09:23:37;;;;;;;15.48;12.15;;;;;;;2.74;62.32;100877.34;1695137;84;21162;-70
2022/11/20 09:26:13;;;;;;;16.62;12.15;;;;;;;2.74;62.28;100878.66;1694961;83;38236;-70
2022/11/20 09:28:39;;;;;;;15.58;12.13;;;;;;;2.75;62.30;100866.58;1703330;83;21712;-69
2022/11/20 09:31:08;;;;;;;14.93;12.28;;;;;;;2.72;61.98;100870.13;1696845;83;20965;-70
2022/11/20 09:33:36;;;;;;;14.10;11.03;;;;;;;2.67;62.23;100864.64;1694626;83;21185;-70
2022/11/20 09:36:03;;;;;;;15.65;12.25;;;;;;;2.69;62.37;100856.01;1694696;84;21166;-70
2022/11/20 09:38:31;;;;;;;14.55;11.33;;;;;;;2.70;62.22;100856.30;1696683;83;21573;-70
2022/11/20 09:41:03;;;;;;;16.02;13.30;;;;;;;2.72;62.29;100851.66;1694664;84;20964;-70
2022/11/20 09:44:15;;;;;;;14.07;11.38;;;;;;;2.77;62.33;100850.06;1694930;84;21189;-71
2022/11/20 09:46:59;;;;;;;15.72;11.78;;;;;;;2.94;62.43;100847.06;1697238;83;21138;-69
2022/11/20 09:50:04;;;;;;;16.97;12.85;;;;;;;3.04;62.30;100844.85;1665840;85;21562;-69
2022/11/20 09:52:51;;;;;;;15.55;12.33;;;;;;;3.03;62.11;100833.48;1680034;85;21560;-70
2022/11/20 09:55:17;;;;;;;17.25;13.80;;;;;;;3.04;62.25;100829.83;1679214;85;20987;-69
2022/11/20 09:57:47;;;;;;;17.12;12.68;;;;;;;2.96;62.32;100827.39;1680723;85;21121;-70
2022/11/20 10:00:15;;;;;;;17.75;13.75;;;;;;;2.94;62.53;100819.36;1681149;85;20999;-70
2022/11/20 10:03:05;;;;;;;17.67;13.72;;;;;;;2.92;62.61;100812.95;1680785;85;21146;-70
2022/11/20 10:05:47;;;;;;;17.80;13.85;;;;;;;2.96;62.68;100810.72;1681032;85;21039;-70
2022/11/20 10:08:25;;;;;;;18.05;12.93;;;;;;;2.97;62.81;100809.22;1681475;85;21035;-69
2022/11/20 10:11:19;;;;;;;18.00;14.33;;;;;;;2.99;62.95;100803.73;1681333;85;21027;-70
2022/11/20 10:13:54;;;;;;;19.35;14.65;;;;;;;2.95;63.03;100803.31;1681058;85;20952;-70
2022/11/20 10:16:39;;;;;;;17.80;14.20;;;;;;;2.86;63.27;100804.51;1681114;85;22014;-70
2022/11/20 10:19:25;;;;;;;19.82;15.58;;;;;;;2.82;63.48;100794.87;1681084;85;21003;-69
2022/11/20 10:22:12;;;;;;;17.30;14.15;;;;;;;2.76;63.69;100786.46;1680677;85;21058;-70
2022/11/20 10:24:58;;;;;;;19.70;15.20;;;;;;;2.72;63.89;100783.89;1681153;85;21463;-70
2022/11/20 10:27:51;;;;;;;17.95;14.33;;;;;;;2.70;64.12;100781.98;1681845;82;21640;-70
2022/11/20 10:30:21;;;;;;;19.87;15.32;;;;;;;2.72;64.31;100780.45;1680938;85;22115;-70
2022/11/20 10:33:03;;;;;;;20.77;15.68;;;;;;;2.73;64.48;100778.11;1680960;82;21506;-70
2022/11/20 10:36:05;;;;;;;18.87;14.80;;;;;;;2.73;64.66;100772.83;1700410;84;20979;-69
2022/11/20 10:38:40;;;;;;;20.92;15.63;;;;;;;2.70;65.01;100773.23;1709958;84;21003;-71
2022/11/20 10:41:25;;;;;;;20.23;15.43;;;;;;;2.71;65.30;100762.49;1681795;83;21122;-69
2022/11/20 10:44:02;;;;;;;19.12;15.20;;;;;;;2.68;65.51;100749.70;1681085;85;21312;-70
2022/11/20 10:46:40;;;;;;;21.07;15.98;;;;;;;2.68;65.49;100743.62;1680473;85;21201;-70
2022/11/20 10:49:16;;;;;;;20.75;15.25;;;;;;;2.68;65.59;100737.03;1681058;85;20988;-71
2022/11/20 10:51:54;;;;;;;18.20;14.20;;;;;;;2.72;65.72;100744.84;1681325;82;21108;-71
2022/11/20 10:54:49;;;;;;;17.85;13.68;;;;;;;2.73;65.69;100745.14;1679385;85;21023;-73
2022/11/20 10:57:39;;;;;;;18.12;14.50;;;;;;;2.70;65.83;100746.86;1675036;85;21120;-72
2022/11/20 11:00:09;;;;;;;21.12;15.43;;;;;;;2.73;65.96;100759.64;1678701;85;21059;-71
2022/11/20 11:02:48;;;;;;;19.70;13.80;;;;;;;2.79;65.96;100754.89;1679865;85;21020;-70
2022/11/20 11:05:40;;;;;;;18.90;15.08;;;;;;;2.80;65.91;100749.94;1679702;85;21020;-71
2022/11/20 11:08:16;;;;;;;18.98;14.90;;;;;;;2.81;65.80;100743.13;1662445;85;20976;-72
2022/11/20 11:10:54;;;;;;;20.12;14.40;;;;;;;2.79;65.75;100739.88;1679714;85;21063;-70
2022/11/20 11:13:28;;;;;;;18.20;14.45;;;;;;;2.77;65.83;100740.59;1679736;85;21545;-71
2022/11/20 11:15:57;;;;;;;19.02;14.40;;;;;;;2.79;65.95;100743.83;1679674;85;21113;-70
2022/11/20 11:18:32;;;;;;;21.02;15.20;;;;;;;2.84;65.93;100751.16;1679771;85;21051;-71
2022/11/20 11:21:04;;;;;;;19.45;14.78;;;;;;;2.84;65.88;100745.08;1679810;85;21781;-70
2022/11/20 11:23:39;;;;;;;18.12;13.88;;;;;;;2.85;65.73;100744.86;1680170;85;21118;-70
2022/11/20 11:26:22;;;;;;;18.70;14.80;;;;;;;2.75;65.89;100733.38;1679670;85;21005;-70
2022/11/20 11:28:59;;;;;;;19.37;14.30;;;;;;;2.74;66.01;100733.59;1679961;85;27350;-72
2022/11/20 11:31:28;;;;;;;18.50;14.35;;;;;;;2.68;65.90;100732.56;1699407;82;21067;-70
2022/11/20 11:34:14;;;;;;;18.20;13.90;;;;;;;2.65;66.00;100705.78;1712025;82;21554;-70
2022/11/20 11:36:52;;;;;;;17.48;12.82;;;;;;;2.64;66.05;100700.21;1678085;84;21159;-70
2022/11/20 11:39:20;;;;;;;17.65;13.48;;;;;;;2.61;66.22;100702.73;1682005;84;20979;-69